Metar z pełnej godziny Komunikat METAR ze strony awiacja.imgw.pl Metar G00 EPRZ METAR EPRZ 162200Z 09006KT 4000 BR NSC M03/M04 Q1019 R27/1///95 =